Time;durP1;ratioP1;P1;durP2;ratioP2;P2;SDS_P1;SDS_P2;PMS_P1;PMS_P2;Temp;Humidity;BMP_temperature;BMP_pressure;BME280_temperature;BME280_humidity;BME280_pressure;Samples;Min_cycle;Max_cycle;Signal;HPM_P1;HPM_P2
2024/01/28 00:00:57;;;;;;;94.80;46.92;;;;;;;;;;5045101;28;20101;-78
2024/01/28 00:03:23;;;;;;;84.95;44.78;;;;;;;;;;5050166;28;20073;-78
2024/01/28 00:05:51;;;;;;;79.85;45.05;;;;;;;;;;5035368;28;20099;-78
2024/01/28 00:08:18;;;;;;;86.38;45.38;;;;;;;;;;5031023;28;20405;-78
2024/01/28 00:10:44;;;;;;;90.82;47.42;;;;;;;;;;5044964;28;20017;-78
2024/01/28 00:13:09;;;;;;;85.93;46.28;;;;;;;;;;5051148;28;20035;-79
2024/01/28 00:15:36;;;;;;;88.57;47.22;;;;;;;;;;5038271;28;20063;-79
2024/01/28 00:18:02;;;;;;;83.22;46.28;;;;;;;;;;5030963;28;20033;-79
2024/01/28 00:20:28;;;;;;;92.90;47.67;;;;;;;;;;5039565;28;20202;-78
2024/01/28 00:22:54;;;;;;;86.20;45.38;;;;;;;;;;5048782;28;20094;-78
2024/01/28 00:25:20;;;;;;;82.72;44.03;;;;;;;;;;5039831;28;20113;-78
2024/01/28 00:27:46;;;;;;;79.28;43.15;;;;;;;;;;5030064;28;20477;-79
2024/01/28 00:30:13;;;;;;;86.45;44.60;;;;;;;;;;5035648;28;20053;-78
2024/01/28 00:32:41;;;;;;;78.25;42.65;;;;;;;;;;5048526;28;20029;-78
2024/01/28 00:35:08;;;;;;;75.97;41.90;;;;;;;;;;5042763;28;20028;-78
2024/01/28 00:37:34;;;;;;;72.40;41.15;;;;;;;;;;5028471;28;20021;-78
2024/01/28 00:40:00;;;;;;;79.13;41.42;;;;;;;;;;5033843;28;20075;-78
2024/01/28 00:42:26;;;;;;;72.18;40.60;;;;;;;;;;5050135;28;20013;-78
2024/01/28 00:44:52;;;;;;;72.50;39.30;;;;;;;;;;5046397;28;20097;-78
2024/01/28 00:47:18;;;;;;;67.68;38.45;;;;;;;;;;5029925;28;20406;-78
2024/01/28 00:49:44;;;;;;;73.35;38.85;;;;;;;;;;5030178;28;20018;-79
2024/01/28 00:52:10;;;;;;;67.45;38.95;;;;;;;;;;5049647;28;20067;-78
2024/01/28 00:54:37;;;;;;;71.72;38.03;;;;;;;;;;5047113;28;20334;-78
2024/01/28 00:57:03;;;;;;;71.20;38.78;;;;;;;;;;5029811;28;20033;-78
2024/01/28 00:59:29;;;;;;;72.60;39.00;;;;;;;;;;5028411;28;20046;-79
2024/01/28 01:01:55;;;;;;;85.03;39.67;;;;;;;;;;5047616;28;20393;-78
2024/01/28 01:04:21;;;;;;;71.75;37.85;;;;;;;;;;5049956;28;20013;-78
2024/01/28 01:06:47;;;;;;;64.13;36.28;;;;;;;;;;5037824;28;20082;-78
2024/01/28 01:09:13;;;;;;;66.75;35.42;;;;;;;;;;5048224;28;20017;-78
2024/01/28 01:11:43;;;;;;;60.20;32.80;;;;;;;;;;5036234;28;20021;-78
2024/01/28 01:14:09;;;;;;;62.00;34.03;;;;;;;;;;5029504;28;20648;-78
2024/01/28 01:16:35;;;;;;;53.10;31.65;;;;;;;;;;5029178;28;20083;-79
2024/01/28 01:19:01;;;;;;;62.33;32.08;;;;;;;;;;5029414;28;20010;-78
2024/01/28 01:21:27;;;;;;;55.33;30.00;;;;;;;;;;5036810;28;20055;-78
2024/01/28 01:23:53;;;;;;;56.80;29.90;;;;;;;;;;5047622;28;20482;-78
2024/01/28 01:26:19;;;;;;;55.50;30.33;;;;;;;;;;5040487;28;20013;-79
2024/01/28 01:28:45;;;;;;;59.90;30.75;;;;;;;;;;5027160;28;20129;-78
2024/01/28 01:31:11;;;;;;;58.60;30.60;;;;;;;;;;5033324;28;20017;-79
2024/01/28 01:33:37;;;;;;;53.88;29.17;;;;;;;;;;5047515;28;20017;-79
2024/01/28 01:36:05;;;;;;;50.15;27.30;;;;;;;;;;5043195;28;20017;-78
2024/01/28 01:38:31;;;;;;;55.85;28.05;;;;;;;;;;5027712;28;20517;-79
2024/01/28 01:40:58;;;;;;;51.90;27.33;;;;;;;;;;5031411;28;20013;-79
2024/01/28 01:43:24;;;;;;;48.80;26.88;;;;;;;;;;5047417;28;20017;-79
2024/01/28 01:45:52;;;;;;;49.58;25.65;;;;;;;;;;5047531;28;20013;-79
2024/01/28 01:48:18;;;;;;;44.00;25.02;;;;;;;;;;5028511;28;20636;-79
2024/01/28 01:50:45;;;;;;;42.38;23.75;;;;;;;;;;5029213;28;20014;-79
2024/01/28 01:53:11;;;;;;;42.83;23.48;;;;;;;;;;5047458;28;20017;-79
2024/01/28 01:55:40;;;;;;;45.60;24.15;;;;;;;;;;5047778;28;20028;-79
2024/01/28 01:58:08;;;;;;;42.00;22.05;;;;;;;;;;5028230;28;20435;-78
2024/01/28 02:00:35;;;;;;;41.50;21.80;;;;;;;;;;5028699;28;20048;-79
2024/01/28 02:03:04;;;;;;;35.95;20.80;;;;;;;;;;5044674;28;20049;-79
2024/01/28 02:05:30;;;;;;;37.28;21.27;;;;;;;;;;5046851;28;20270;-79
2024/01/28 02:07:56;;;;;;;35.72;20.10;;;;;;;;;;5033771;28;20550;-79
2024/01/28 02:10:22;;;;;;;40.78;18.92;;;;;;;;;;5026990;28;20318;-78
2024/01/28 02:12:52;;;;;;;36.22;19.17;;;;;;;;;;5041552;28;20055;-79
2024/01/28 02:15:18;;;;;;;30.63;17.73;;;;;;;;;;5046982;28;20017;-78
2024/01/28 02:17:44;;;;;;;32.78;18.13;;;;;;;;;;5036907;28;20355;-78
2024/01/28 02:20:11;;;;;;;37.50;17.75;;;;;;;;;;5029563;28;20322;-78
2024/01/28 02:22:37;;;;;;;35.05;17.80;;;;;;;;;;5038426;28;20017;-78
2024/01/28 02:25:03;;;;;;;29.75;16.45;;;;;;;;;;5045833;28;20021;-77
2024/01/28 02:27:29;;;;;;;35.45;17.17;;;;;;;;;;5028767;28;20072;-77
2024/01/28 02:29:55;;;;;;;30.30;17.23;;;;;;;;;;5028218;28;20048;-77
2024/01/28 02:32:21;;;;;;;28.00;16.35;;;;;;;;;;5033149;28;20021;-78
2024/01/28 02:34:47;;;;;;;38.53;17.67;;;;;;;;;;5047711;28;20025;-78
2024/01/28 02:37:13;;;;;;;35.70;17.85;;;;;;;;;;5045496;28;20029;-78
2024/01/28 02:39:40;;;;;;;29.00;16.67;;;;;;;;;;5027101;28;20087;-78
2024/01/28 02:42:07;;;;;;;30.60;16.58;;;;;;;;;;5027679;28;20218;-79
2024/01/28 02:44:33;;;;;;;32.78;16.38;;;;;;;;;;5046692;28;20100;-78
2024/01/28 02:47:01;;;;;;;27.60;16.20;;;;;;;;;;5048010;28;20064;-78
2024/01/28 02:49:27;;;;;;;28.15;16.48;;;;;;;;;;5028636;28;20276;-79
2024/01/28 02:51:53;;;;;;;29.10;16.50;;;;;;;;;;5026266;28;20214;-78
2024/01/28 02:54:20;;;;;;;29.50;15.25;;;;;;;;;;5044711;28;20017;-78
2024/01/28 02:56:46;;;;;;;28.52;15.68;;;;;;;;;;5046904;28;20032;-79
2024/01/28 02:59:13;;;;;;;33.40;15.85;;;;;;;;;;5030475;28;20479;-78
2024/01/28 03:01:46;;;;;;;31.38;15.70;;;;;;;;;;5027764;28;20014;-79
2024/01/28 03:04:12;;;;;;;31.52;16.02;;;;;;;;;;5042991;28;20025;-78
2024/01/28 03:06:38;;;;;;;27.77;14.70;;;;;;;;;;5048298;28;20078;-78
2024/01/28 03:09:04;;;;;;;30.55;15.52;;;;;;;;;;5032084;28;20017;-78
2024/01/28 03:11:30;;;;;;;25.90;14.07;;;;;;;;;;5027497;28;20079;-78
2024/01/28 03:13:56;;;;;;;27.58;13.80;;;;;;;;;;5041258;28;20023;-79
2024/01/28 03:16:23;;;;;;;27.27;13.70;;;;;;;;;;5047562;28;20025;-78
2024/01/28 03:18:49;;;;;;;26.98;12.63;;;;;;;;;;5037765;28;20057;-79
2024/01/28 03:21:15;;;;;;;23.45;13.55;;;;;;;;;;5030069;28;20561;-79
2024/01/28 03:23:41;;;;;;;30.17;13.30;;;;;;;;;;5041081;28;20032;-79
2024/01/28 03:26:10;;;;;;;25.75;12.57;;;;;;;;;;5050715;28;20015;-78
2024/01/28 03:28:36;;;;;;;24.05;12.07;;;;;;;;;;5039565;28;20108;-79
2024/01/28 03:31:02;;;;;;;23.60;13.82;;;;;;;;;;5030711;28;20049;-79
2024/01/28 03:33:28;;;;;;;26.60;12.82;;;;;;;;;;5040534;28;20029;-79
2024/01/28 03:35:54;;;;;;;27.40;12.98;;;;;;;;;;5050674;28;20365;-79
2024/01/28 03:38:20;;;;;;;29.48;12.60;;;;;;;;;;5042917;28;20022;-79
2024/01/28 03:40:46;;;;;;;25.98;11.77;;;;;;;;;;5031439;28;20048;-78
2024/01/28 03:43:13;;;;;;;28.23;11.88;;;;;;;;;;5035265;28;20017;-79
2024/01/28 03:45:39;;;;;;;26.10;12.55;;;;;;;;;;5049337;28;20020;-79
2024/01/28 03:48:05;;;;;;;29.08;13.00;;;;;;;;;;5047111;28;20078;-79
2024/01/28 03:50:31;;;;;;;22.80;12.43;;;;;;;;;;5031196;28;20017;-79
2024/01/28 03:52:57;;;;;;;30.88;12.88;;;;;;;;;;5030128;28;20394;-78
2024/01/28 03:55:23;;;;;;;25.80;13.07;;;;;;;;;;5030601;28;20033;-79
2024/01/28 03:57:49;;;;;;;30.05;15.00;;;;;;;;;;5030425;28;20026;-78
2024/01/28 04:00:18;;;;;;;30.67;14.73;;;;;;;;;;5049739;28;20020;-78
2024/01/28 04:02:44;;;;;;;33.28;15.80;;;;;;;;;;5049093;28;20021;-78
2024/01/28 04:05:10;;;;;;;39.35;17.45;;;;;;;;;;5029253;28;20025;-79
2024/01/28 04:07:36;;;;;;;31.65;17.45;;;;;;;;;;5029116;28;20494;-79
2024/01/28 04:10:03;;;;;;;36.97;18.63;;;;;;;;;;5049923;28;20070;-78
2024/01/28 04:12:29;;;;;;;40.35;18.70;;;;;;;;;;5051095;28;20042;-78
2024/01/28 04:14:55;;;;;;;32.50;18.40;;;;;;;;;;5031987;28;20022;-78
2024/01/28 04:17:21;;;;;;;38.78;20.17;;;;;;;;;;5029001;28;20065;-79
2024/01/28 04:19:47;;;;;;;38.38;20.30;;;;;;;;;;5030401;28;20397;-78
2024/01/28 04:22:15;;;;;;;39.47;21.50;;;;;;;;;;5028878;28;20097;-78
2024/01/28 04:24:41;;;;;;;36.47;22.38;;;;;;;;;;5041718;28;20064;-78
2024/01/28 04:27:07;;;;;;;38.78;22.23;;;;;;;;;;5047772;28;20090;-78
2024/01/28 04:29:33;;;;;;;37.58;22.35;;;;;;;;;;5037016;28;20083;-77
2024/01/28 04:31:59;;;;;;;44.67;22.20;;;;;;;;;;5029718;28;20025;-78
2024/01/28 04:34:25;;;;;;;41.42;24.17;;;;;;;;;;5038595;28;20032;-77
2024/01/28 04:36:51;;;;;;;42.95;23.85;;;;;;;;;;5048750;28;20526;-79
2024/01/28 04:39:18;;;;;;;43.22;24.00;;;;;;;;;;5040631;28;20097;-78
2024/01/28 04:41:44;;;;;;;38.72;24.73;;;;;;;;;;5028630;28;20018;-78
2024/01/28 04:44:10;;;;;;;38.35;24.10;;;;;;;;;;5036069;28;20031;-78
2024/01/28 04:46:36;;;;;;;42.30;26.33;;;;;;;;;;5049844;28;20104;-78
2024/01/28 04:49:03;;;;;;;42.45;26.05;;;;;;;;;;5042876;28;20030;-78
2024/01/28 04:51:30;;;;;;;42.55;26.42;;;;;;;;;;5028596;28;20017;-78
2024/01/28 04:53:57;;;;;;;41.78;26.23;;;;;;;;;;5033122;28;20017;-78
2024/01/28 04:56:23;;;;;;;42.90;27.08;;;;;;;;;;5048150;28;20354;-78
2024/01/28 04:58:49;;;;;;;42.53;26.30;;;;;;;;;;5046110;28;20107;-78
2024/01/28 05:01:15;;;;;;;44.45;28.52;;;;;;;;;;5028849;28;20045;-77
2024/01/28 05:03:41;;;;;;;47.78;27.77;;;;;;;;;;5029622;28;20160;-77
2024/01/28 05:06:07;;;;;;;51.42;30.02;;;;;;;;;;5048204;28;20092;-77
2024/01/28 05:08:33;;;;;;;51.22;30.10;;;;;;;;;;5049051;28;20561;-77
2024/01/28 05:10:59;;;;;;;50.75;31.13;;;;;;;;;;5028283;28;20161;-77
2024/01/28 05:13:25;;;;;;;52.72;33.78;;;;;;;;;;5029637;28;20049;-78
2024/01/28 05:15:52;;;;;;;50.50;29.80;;;;;;;;;;5047384;28;20021;-77
2024/01/28 05:18:18;;;;;;;60.63;32.80;;;;;;;;;;5048327;28;20028;-77
2024/01/28 05:20:44;;;;;;;55.28;31.58;;;;;;;;;;5031328;28;20048;-78
2024/01/28 05:23:10;;;;;;;50.35;30.88;;;;;;;;;;5029781;28;20045;-78
2024/01/28 05:25:36;;;;;;;50.80;30.27;;;;;;;;;;5027822;28;20040;-80
2024/01/28 05:28:03;;;;;;;52.60;30.70;;;;;;;;;;5028241;28;20024;-79
2024/01/28 05:30:29;;;;;;;45.28;29.55;;;;;;;;;;5042289;28;20045;-79
2024/01/28 05:32:55;;;;;;;47.63;29.45;;;;;;;;;;5047858;28;20029;-79
2024/01/28 05:35:21;;;;;;;43.22;28.92;;;;;;;;;;5036137;28;20032;-77
2024/01/28 05:37:47;;;;;;;50.90;29.83;;;;;;;;;;5042757;28;20025;-77
2024/01/28 05:40:13;;;;;;;45.13;29.10;;;;;;;;;;5047900;28;20428;-77
2024/01/28 05:42:40;;;;;;;48.58;29.90;;;;;;;;;;5046657;28;20510;-77
2024/01/28 05:45:06;;;;;;;45.45;28.25;;;;;;;;;;5039667;28;20057;-78
2024/01/28 05:47:32;;;;;;;45.17;29.60;;;;;;;;;;5047079;28;20125;-78
2024/01/28 05:49:58;;;;;;;45.90;29.20;;;;;;;;;;5038734;28;20112;-77
2024/01/28 05:52:24;;;;;;;43.58;27.65;;;;;;;;;;5037470;28;20381;-77
2024/01/28 05:54:50;;;;;;;44.60;28.38;;;;;;;;;;5041917;28;20018;-77
2024/01/28 05:57:16;;;;;;;46.03;28.05;;;;;;;;;;5028963;28;20040;-77
2024/01/28 05:59:42;;;;;;;46.55;28.08;;;;;;;;;;5032104;28;20052;-78
2024/01/28 06:02:08;;;;;;;45.17;28.10;;;;;;;;;;5047220;28;20045;-77
2024/01/28 06:04:34;;;;;;;43.55;27.63;;;;;;;;;;5043711;28;20112;-78
2024/01/28 06:07:00;;;;;;;46.10;28.58;;;;;;;;;;5028658;28;20021;-78
2024/01/28 06:09:26;;;;;;;40.90;28.80;;;;;;;;;;5030612;28;20068;-78
2024/01/28 06:11:52;;;;;;;44.42;29.05;;;;;;;;;;5046613;28;20021;-77
2024/01/28 06:14:19;;;;;;;49.45;29.20;;;;;;;;;;5048251;28;20021;-79
2024/01/28 06:16:45;;;;;;;46.42;29.42;;;;;;;;;;5028472;28;20049;-79
2024/01/28 06:19:11;;;;;;;47.67;29.52;;;;;;;;;;5028515;28;20052;-79
2024/01/28 06:21:36;;;;;;;50.55;29.95;;;;;;;;;;5045603;28;20072;-79
2024/01/28 06:24:03;;;;;;;47.05;29.73;;;;;;;;;;5046776;28;20232;-78
2024/01/28 06:26:28;;;;;;;49.47;29.45;;;;;;;;;;5031859;28;20025;-79
2024/01/28 06:28:55;;;;;;;45.72;29.40;;;;;;;;;;5028497;28;20041;-80
2024/01/28 06:31:21;;;;;;;47.85;29.63;;;;;;;;;;5043200;28;20021;-80
2024/01/28 06:33:47;;;;;;;50.00;29.67;;;;;;;;;;5047172;28;20013;-80
2024/01/28 06:36:20;;;;;;;49.92;29.90;;;;;;;;;;5034174;28;20068;-81
2024/01/28 06:38:46;;;;;;;47.72;28.70;;;;;;;;;;5028192;28;20140;-79
2024/01/28 06:41:12;;;;;;;47.33;28.13;;;;;;;;;;5029183;28;20017;-79
2024/01/28 06:43:38;;;;;;;44.05;27.95;;;;;;;;;;5027449;28;20394;-79
2024/01/28 06:46:04;;;;;;;48.83;28.27;;;;;;;;;;5035649;28;20021;-79
2024/01/28 06:48:31;;;;;;;46.95;27.25;;;;;;;;;;5046065;28;20566;-79
2024/01/28 06:50:57;;;;;;;49.67;28.30;;;;;;;;;;5042029;28;20489;-81
2024/01/28 06:53:23;;;;;;;46.25;27.60;;;;;;;;;;5034953;28;20489;-80
2024/01/28 06:55:50;;;;;;;48.83;28.73;;;;;;;;;;5042837;28;20100;-80
2024/01/28 06:58:16;;;;;;;48.40;29.20;;;;;;;;;;5041956;28;20481;-80
2024/01/28 07:00:42;;;;;;;51.28;30.90;;;;;;;;;;5044046;28;20032;-79
2024/01/28 07:03:09;;;;;;;55.20;32.15;;;;;;;;;;5044243;28;20069;-80
2024/01/28 07:05:35;;;;;;;48.85;31.58;;;;;;;;;;5051595;28;20025;-78
2024/01/28 07:08:01;;;;;;;45.22;28.95;;;;;;;;;;5050907;28;20211;-78
2024/01/28 07:10:28;;;;;;;49.53;29.50;;;;;;;;;;5049662;28;20025;-79
2024/01/28 07:12:54;;;;;;;47.60;29.17;;;;;;;;;;5042584;28;20020;-79
2024/01/28 07:15:20;;;;;;;50.05;32.25;;;;;;;;;;5042195;28;20027;-82
2024/01/28 07:17:46;;;;;;;42.92;28.80;;;;;;;;;;5037768;28;20045;-82
2024/01/28 07:20:14;;;;;;;43.30;26.83;;;;;;;;;;5049040;28;20022;-82
2024/01/28 07:22:40;;;;;;;44.03;28.02;;;;;;;;;;5050300;28;20023;-82
2024/01/28 07:25:06;;;;;;;41.28;26.55;;;;;;;;;;5046431;28;20017;-82
2024/01/28 07:27:32;;;;;;;40.88;27.42;;;;;;;;;;5045577;28;20032;-82
2024/01/28 07:29:58;;;;;;;37.33;25.40;;;;;;;;;;5048252;28;20037;-82
2024/01/28 07:32:24;;;;;;;45.38;27.98;;;;;;;;;;5043587;28;20048;-82
2024/01/28 07:34:50;;;;;;;43.45;28.35;;;;;;;;;;5045422;28;20103;-82
2024/01/28 07:37:18;;;;;;;42.92;26.70;;;;;;;;;;5043845;28;20116;-82
2024/01/28 07:39:44;;;;;;;41.70;26.42;;;;;;;;;;5045588;28;20072;-82
2024/01/28 07:42:10;;;;;;;40.13;26.35;;;;;;;;;;5044528;28;20024;-82
2024/01/28 07:44:36;;;;;;;46.05;26.77;;;;;;;;;;5044839;28;20057;-82
2024/01/28 07:47:04;;;;;;;40.78;27.70;;;;;;;;;;5036149;28;20056;-82
2024/01/28 07:49:30;;;;;;;48.90;27.95;;;;;;;;;;5038510;28;20028;-82
2024/01/28 07:51:56;;;;;;;44.88;27.73;;;;;;;;;;5040134;28;20037;-82
2024/01/28 07:54:22;;;;;;;48.45;30.13;;;;;;;;;;5045484;28;20017;-82
2024/01/28 07:56:48;;;;;;;42.40;27.45;;;;;;;;;;5039368;28;20231;-82
2024/01/28 07:59:14;;;;;;;42.42;28.02;;;;;;;;;;5046342;28;20057;-81
2024/01/28 08:01:40;;;;;;;39.65;28.60;;;;;;;;;;5036922;28;20599;-82
2024/01/28 08:04:06;;;;;;;44.75;27.95;;;;;;;;;;5041373;28;20087;-82
2024/01/28 08:06:32;;;;;;;43.35;27.45;;;;;;;;;;5049166;28;20021;-81
2024/01/28 08:09:00;;;;;;;38.92;27.05;;;;;;;;;;5045535;28;20022;-82
2024/01/28 08:11:26;;;;;;;38.88;27.08;;;;;;;;;;5047904;28;20071;-82
2024/01/28 08:13:52;;;;;;;45.45;29.23;;;;;;;;;;5039764;28;20029;-82
2024/01/28 08:16:18;;;;;;;43.97;30.88;;;;;;;;;;5039011;28;20029;-82
2024/01/28 08:18:45;;;;;;;44.35;29.95;;;;;;;;;;5033630;28;20409;-82
2024/01/28 08:21:12;;;;;;;46.13;30.63;;;;;;;;;;5035882;28;20066;-82
2024/01/28 08:23:38;;;;;;;50.05;31.48;;;;;;;;;;5042165;28;20025;-82
2024/01/28 08:26:05;;;;;;;41.03;29.58;;;;;;;;;;5040163;28;20017;-80
2024/01/28 08:28:31;;;;;;;38.33;26.70;;;;;;;;;;5043090;28;20031;-78
2024/01/28 08:30:57;;;;;;;36.83;25.92;;;;;;;;;;5047370;28;20100;-78
2024/01/28 08:33:23;;;;;;;35.28;22.90;;;;;;;;;;5047145;28;20099;-78
2024/01/28 08:35:49;;;;;;;31.73;22.63;;;;;;;;;;5042322;28;20049;-78
2024/01/28 08:38:15;;;;;;;26.88;19.35;;;;;;;;;;5038061;28;20542;-78
2024/01/28 08:40:41;;;;;;;25.33;17.40;;;;;;;;;;5028987;28;20028;-78
2024/01/28 08:43:08;;;;;;;23.10;17.98;;;;;;;;;;5039509;28;20025;-77
2024/01/28 08:45:36;;;;;;;24.40;17.63;;;;;;;;;;5038854;28;20525;-78
2024/01/28 08:48:02;;;;;;;23.63;16.65;;;;;;;;;;5034473;28;20282;-78
2024/01/28 08:50:28;;;;;;;29.45;17.98;;;;;;;;;;5036149;28;20017;-78
2024/01/28 08:52:54;;;;;;;22.75;16.65;;;;;;;;;;5045743;28;20031;-78
2024/01/28 08:55:20;;;;;;;26.08;18.55;;;;;;;;;;5046890;28;20032;-78
2024/01/28 08:57:46;;;;;;;23.80;18.23;;;;;;;;;;5047063;28;20025;-78
2024/01/28 09:00:12;;;;;;;29.00;18.27;;;;;;;;;;5048232;28;20024;-78
2024/01/28 09:02:39;;;;;;;25.95;17.42;;;;;;;;;;5045731;28;20573;-78
2024/01/28 09:05:05;;;;;;;27.10;17.70;;;;;;;;;;5036761;28;20244;-78
2024/01/28 09:07:32;;;;;;;22.65;16.42;;;;;;;;;;5039232;28;20036;-78
2024/01/28 09:09:58;;;;;;;23.23;16.70;;;;;;;;;;5045349;28;20773;-78
2024/01/28 09:12:24;;;;;;;23.33;16.17;;;;;;;;;;5046498;28;20111;-78
2024/01/28 09:14:50;;;;;;;23.98;16.55;;;;;;;;;;5046271;28;20225;-78
2024/01/28 09:17:16;;;;;;;27.55;17.67;;;;;;;;;;5038232;28;20025;-80
2024/01/28 09:19:42;;;;;;;26.50;16.35;;;;;;;;;;5044449;28;20021;-81
2024/01/28 09:22:08;;;;;;;24.52;16.23;;;;;;;;;;5035377;28;20013;-81
2024/01/28 09:24:34;;;;;;;22.75;15.63;;;;;;;;;;5039930;28;20025;-81
2024/01/28 09:27:01;;;;;;;22.10;15.20;;;;;;;;;;5042249;28;20325;-80
2024/01/28 09:29:28;;;;;;;24.95;15.82;;;;;;;;;;5006685;28;1133746;-80
2024/01/28 09:31:59;;;;;;;20.73;14.40;;;;;;;;;;5041223;28;20275;-79
2024/01/28 09:34:25;;;;;;;;;;;;;;;;;;5043881;28;20025;-79
2024/01/28 09:36:51;;;;;;;20.10;14.32;;;;;;;;;;5046995;28;19913;-79
2024/01/28 09:39:17;;;;;;;26.55;15.68;;;;;;;;;;5046582;28;20025;-79
2024/01/28 09:41:56;;;;;;;23.60;15.38;;;;;;;;;;5039554;28;20013;-77
2024/01/28 09:44:22;;;;;;;23.63;13.95;;;;;;;;;;5047468;28;20188;-77
2024/01/28 09:46:48;;;;;;;21.58;14.00;;;;;;;;;;5047864;28;20465;-76
2024/01/28 09:49:14;;;;;;;21.08;14.00;;;;;;;;;;5046082;28;20021;-76
2024/01/28 09:51:42;;;;;;;18.58;13.23;;;;;;;;;;5045882;28;20036;-77
2024/01/28 09:54:09;;;;;;;22.35;14.20;;;;;;;;;;5046379;28;20170;-77
2024/01/28 09:56:36;;;;;;;22.95;14.38;;;;;;;;;;5048292;28;20028;-77
2024/01/28 09:59:02;;;;;;;21.30;13.30;;;;;;;;;;5045744;28;20024;-76
2024/01/28 10:01:30;;;;;;;24.58;14.32;;;;;;;;;;5043616;28;20465;-77
2024/01/28 10:04:00;;;;;;;25.38;13.77;;;;;;;;;;5043542;28;20021;-77
2024/01/28 10:06:26;;;;;;;21.30;13.13;;;;;;;;;;5044344;28;20016;-77
2024/01/28 10:08:52;;;;;;;19.65;13.57;;;;;;;;;;5043757;28;20025;-77
2024/01/28 10:11:19;;;;;;;18.13;12.07;;;;;;;;;;5046086;28;20017;-77
2024/01/28 10:13:45;;;;;;;21.23;13.20;;;;;;;;;;5044977;28;20103;-77
2024/01/28 10:16:11;;;;;;;21.80;13.23;;;;;;;;;;5046371;28;20021;-77
2024/01/28 10:18:37;;;;;;;20.40;12.73;;;;;;;;;;5045946;28;20025;-77
2024/01/28 10:21:03;;;;;;;20.83;12.88;;;;;;;;;;5046052;28;20013;-77
2024/01/28 10:23:29;;;;;;;23.30;12.50;;;;;;;;;;5045636;28;20023;-77
2024/01/28 10:26:00;;;;;;;22.13;12.57;;;;;;;;;;5046067;28;20016;-77
2024/01/28 10:28:29;;;;;;;25.30;13.10;;;;;;;;;;5045585;28;20017;-76
2024/01/28 10:30:55;;;;;;;19.00;12.43;;;;;;;;;;5045774;28;20025;-77
2024/01/28 10:33:21;;;;;;;19.45;11.80;;;;;;;;;;5045709;28;20025;-77
2024/01/28 10:35:47;;;;;;;19.73;11.30;;;;;;;;;;5047160;28;20013;-77
2024/01/28 10:38:16;;;;;;;22.10;11.77;;;;;;;;;;5047376;28;20546;-77
2024/01/28 10:40:44;;;;;;;22.42;11.50;;;;;;;;;;5046337;28;20473;-77
2024/01/28 10:43:12;;;;;;;18.83;11.63;;;;;;;;;;5045605;28;20017;-77
2024/01/28 10:45:41;;;;;;;18.00;10.50;;;;;;;;;;5043648;28;20039;-77
2024/01/28 10:48:11;;;;;;;17.08;11.35;;;;;;;;;;5045103;28;20095;-77
2024/01/28 10:50:39;;;;;;;20.77;10.35;;;;;;;;;;5047677;28;20028;-77
2024/01/28 10:53:07;;;;;;;20.27;10.77;;;;;;;;;;5046158;28;20305;-77
2024/01/28 10:55:34;;;;;;;19.23;10.40;;;;;;;;;;5047416;28;20017;-77
2024/01/28 10:58:00;;;;;;;18.83;10.98;;;;;;;;;;5043534;28;20036;-77
2024/01/28 11:00:28;;;;;;;17.73;9.40;;;;;;;;;;5039433;28;20014;-77
2024/01/28 11:02:56;;;;;;;14.90;9.80;;;;;;;;;;5042494;28;20400;-77
2024/01/28 11:05:23;;;;;;;17.58;9.80;;;;;;;;;;5046866;28;20035;-77
2024/01/28 11:07:49;;;;;;;13.32;9.73;;;;;;;;;;5047247;28;20029;-77
2024/01/28 11:10:16;;;;;;;14.82;9.27;;;;;;;;;;5047455;28;20075;-77
2024/01/28 11:12:42;;;;;;;18.15;9.13;;;;;;;;;;5057759;28;20025;-77
2024/01/28 11:15:13;;;;;;;18.63;10.30;;;;;;;;;;5043453;28;20052;-77
2024/01/28 11:17:39;;;;;;;16.38;9.80;;;;;;;;;;5030817;28;20052;-78
2024/01/28 11:20:09;;;;;;;15.35;9.48;;;;;;;;;;5045291;28;20022;-78
2024/01/28 11:22:54;;;;;;;13.80;9.00;;;;;;;;;;5035829;28;20024;-77
2024/01/28 11:25:24;;;;;;;15.88;9.48;;;;;;;;;;5052673;28;20025;-78
2024/01/28 11:27:51;;;;;;;18.70;9.75;;;;;;;;;;5044769;28;20025;-77
2024/01/28 11:30:21;;;;;;;18.13;9.02;;;;;;;;;;5040993;28;20543;-77
2024/01/28 11:32:47;;;;;;;17.27;9.43;;;;;;;;;;5046936;28;20021;-78
2024/01/28 11:35:13;;;;;;;16.98;9.02;;;;;;;;;;5035709;28;20036;-78
2024/01/28 11:37:44;;;;;;;15.20;9.38;;;;;;;;;;5047372;28;20013;-77
2024/01/28 11:40:09;;;;;;;;;;;;;;;;;;5046423;28;20141;-77
2024/01/28 11:42:35;;;;;;;16.92;9.93;;;;;;;;;;5050696;28;19983;-79
2024/01/28 11:45:01;;;;;;;18.75;9.43;;;;;;;;;;5043914;28;20035;-79
2024/01/28 11:47:29;;;;;;;16.25;9.25;;;;;;;;;;5035694;28;20025;-78
2024/01/28 11:49:57;;;;;;;15.18;8.55;;;;;;;;;;5037030;28;20037;-77
2024/01/28 11:52:23;;;;;;;12.20;8.40;;;;;;;;;;5047702;28;20063;-77
2024/01/28 11:54:49;;;;;;;13.73;8.43;;;;;;;;;;5040387;28;20030;-79
2024/01/28 11:57:15;;;;;;;15.82;9.43;;;;;;;;;;5044104;28;20029;-80
2024/01/28 11:59:41;;;;;;;14.48;9.07;;;;;;;;;;5047245;28;20484;-77
2024/01/28 12:02:08;;;;;;;14.02;9.30;;;;;;;;;;5036566;28;20121;-77
2024/01/28 12:04:39;;;;;;;16.00;8.30;;;;;;;;;;5044807;28;20092;-77
2024/01/28 12:07:06;;;;;;;11.95;8.45;;;;;;;;;;5040149;28;20083;-78
2024/01/28 12:09:32;;;;;;;13.80;8.05;;;;;;;;;;5038702;28;20411;-77
2024/01/28 12:11:58;;;;;;;12.55;7.88;;;;;;;;;;5040580;28;20064;-78
2024/01/28 12:14:24;;;;;;;14.23;7.53;;;;;;;;;;5049253;28;20017;-77
2024/01/28 12:16:50;;;;;;;13.60;7.05;;;;;;;;;;5048973;28;20029;-77
2024/01/28 12:19:18;;;;;;;16.00;7.28;;;;;;;;;;5048530;28;20024;-77
2024/01/28 12:21:47;;;;;;;11.88;6.82;;;;;;;;;;5048711;28;20025;-77
2024/01/28 12:24:13;;;;;;;12.82;7.00;;;;;;;;;;5043586;28;20040;-78
2024/01/28 12:26:43;;;;;;;12.55;7.60;;;;;;;;;;5042021;28;20021;-78
2024/01/28 12:29:09;;;;;;;11.05;7.05;;;;;;;;;;5046218;28;20099;-77
2024/01/28 12:31:35;;;;;;;10.57;5.93;;;;;;;;;;5049370;28;20025;-78
2024/01/28 12:34:01;;;;;;;10.43;6.57;;;;;;;;;;5042864;28;20052;-77
2024/01/28 12:36:27;;;;;;;12.05;6.20;;;;;;;;;;5048020;28;20116;-78
2024/01/28 12:38:53;;;;;;;11.15;5.75;;;;;;;;;;5047852;28;20108;-77
2024/01/28 12:41:20;;;;;;;12.43;6.32;;;;;;;;;;5048343;28;20083;-78
2024/01/28 12:43:48;;;;;;;10.07;5.82;;;;;;;;;;5048650;28;20009;-77
2024/01/28 12:46:14;;;;;;;9.02;6.05;;;;;;;;;;5038312;28;20547;-77
2024/01/28 12:48:40;;;;;;;9.75;5.38;;;;;;;;;;5048752;28;20017;-78
2024/01/28 12:51:07;;;;;;;11.77;5.65;;;;;;;;;;5043364;28;20437;-77
2024/01/28 12:53:33;;;;;;;9.25;5.00;;;;;;;;;;5046464;28;20116;-79
2024/01/28 12:55:59;;;;;;;10.63;5.97;;;;;;;;;;5034871;28;20142;-78
2024/01/28 12:58:25;;;;;;;7.10;5.93;;;;;;;;;;5048486;28;20052;-76
2024/01/28 13:00:51;;;;;;;9.52;6.28;;;;;;;;;;5050445;28;20017;-78
2024/01/28 13:03:17;;;;;;;11.93;6.55;;;;;;;;;;5047406;28;20067;-78
2024/01/28 13:05:43;;;;;;;10.90;6.30;;;;;;;;;;5045451;28;20037;-78
2024/01/28 13:08:09;;;;;;;9.43;6.05;;;;;;;;;;5039552;28;20082;-80
2024/01/28 13:10:35;;;;;;;12.75;6.00;;;;;;;;;;5047481;28;20172;-78
2024/01/28 13:13:01;;;;;;;11.35;6.45;;;;;;;;;;5048758;28;20568;-78
2024/01/28 13:15:27;;;;;;;9.45;6.18;;;;;;;;;;5048145;28;20025;-79
2024/01/28 13:17:53;;;;;;;9.55;5.97;;;;;;;;;;5048024;28;20025;-79
2024/01/28 13:20:19;;;;;;;8.07;5.65;;;;;;;;;;5034611;28;20072;-79
2024/01/28 13:22:45;;;;;;;11.18;5.90;;;;;;;;;;5044011;28;20053;-78
2024/01/28 13:25:12;;;;;;;11.93;6.40;;;;;;;;;;5048680;28;20363;-78
2024/01/28 13:27:38;;;;;;;11.25;5.45;;;;;;;;;;5040243;28;20493;-79
2024/01/28 13:30:05;;;;;;;11.00;5.70;;;;;;;;;;5047487;28;20084;-79
2024/01/28 13:32:33;;;;;;;8.77;5.57;;;;;;;;;;5046638;28;20048;-79
2024/01/28 13:35:00;;;;;;;10.35;5.65;;;;;;;;;;5040455;28;20021;-79
2024/01/28 13:37:27;;;;;;;9.23;4.97;;;;;;;;;;5048052;28;20476;-79
2024/01/28 13:39:53;;;;;;;9.30;5.57;;;;;;;;;;5048714;28;20392;-79
2024/01/28 13:42:19;;;;;;;9.30;5.38;;;;;;;;;;5041609;28;20017;-81
2024/01/28 13:44:45;;;;;;;10.30;5.65;;;;;;;;;;5047448;28;20078;-81
2024/01/28 13:47:11;;;;;;;8.13;5.30;;;;;;;;;;5047518;28;20029;-79
2024/01/28 13:49:37;;;;;;;10.07;5.95;;;;;;;;;;5039950;28;20021;-80
2024/01/28 13:52:06;;;;;;;7.75;5.30;;;;;;;;;;5038094;28;20025;-80
2024/01/28 13:54:32;;;;;;;11.27;5.50;;;;;;;;;;5046993;28;20102;-81
2024/01/28 13:56:58;;;;;;;7.88;5.25;;;;;;;;;;5045356;28;20505;-80
2024/01/28 13:59:24;;;;;;;8.90;4.70;;;;;;;;;;5047676;28;20021;-80
2024/01/28 14:01:50;;;;;;;10.52;5.13;;;;;;;;;;5046585;28;20389;-80
2024/01/28 14:04:16;;;;;;;11.57;5.97;;;;;;;;;;5046963;28;20389;-80
2024/01/28 14:06:42;;;;;;;10.75;5.75;;;;;;;;;;5044765;28;20009;-80
2024/01/28 14:09:09;;;;;;;8.65;5.30;;;;;;;;;;5047836;28;20028;-80
2024/01/28 14:11:35;;;;;;;9.98;5.55;;;;;;;;;;5046544;28;20477;-80
2024/01/28 14:14:01;;;;;;;9.77;4.72;;;;;;;;;;5047650;28;20103;-80
2024/01/28 14:16:27;;;;;;;8.82;5.35;;;;;;;;;;5047253;28;20401;-81